LMMLLGKP

Guest
Details From LMML - La Valette Luqa
To LGKP - KARPATHOS
Flight Number -
Tags generated
Created
Modified
Stats Distance 623 nm / 1,154 km
Max Altitude 35,000 ft / 10,668 m
Waypoints 5
Social Downloads 0
Likes 0
Share VATSIM

Download

Looking for another format? Having issues loading an existing format? Contact us
Advertisement - Login to hide

Notes

Basic altitude profile: - Ascent Rate: 2500ft/min - Ascent Speed: 250kts - Cruise Altitude: 35000ft - Cruise Speed: 420kts - Descent Rate: 1500ft/min - Descent Speed: 250kts Options: - Use NATs: no - Use PACOTS: no - Use low airways: no - Use high airways: no

Route

LMML 3600N01500E 3600N02000E 3600N02500E LGKP

ID Type Via Altitude Latitude Longitude Leg Dist Tot Dist Heading (true) Name
O LMML APT - 0 ft / 0 m 35.84948˚ 14.48184˚ - 0 nm - La Valette Luqa
3600N01500E LATLON - 9,500 ft / 2,896 m 36.00000˚ 15.00000˚ 26 nm 26 nm 70° / 70° -
3600N02000E LATLON - 35,000 ft / 10,668 m 36.00000˚ 20.00000˚ 242 nm 269 nm 89° / 91° -
3600N02500E LATLON - 23,600 ft / 7,193 m 36.00000˚ 25.00000˚ 242 nm 512 nm 89° / 91° -
O LGKP APT - 0 ft / 0 m 35.42141˚ 27.14601˚ 110 nm 622 nm 108° / 109° KARPATHOS

Altitude Profile

Advertisement - Login to hide

Weather


0- 5 10 15 20 25 30 35+ Temperature / ° C

Clouds and Precipitation
Forecast for 2017-12-18 12:00 UTC. Updated an hour ago

Ground ~20,000 ft ~40,000 ft Winds

LMML

Details ICAO LMML (MLA)
Name La Valette Luqa
Region Malta
Timezone Europe/Malta (UTC+1.0)
Stats Elevation 300 ft / 91 m (AMSL)
Location 35.849477° 14.481836°
Runways 2
Magnetic Variation 3.021° E

METAR

LMML 181215Z 34014KT 9999 FEW040 14/01 Q1021 NOSIG

Decode

TAF

Not found

Departure Runways

ID Width Length Bearing (true) Bearing (mag) Surface Threshold Offset Overrun Length
14 197 ft / 60 m 11,635 ft / 3,546 m 134.83° 131.81° Asphalt 0 ft / 0 m 420 ft / 128 m
24 148 ft / 45 m 7,789 ft / 2,374 m 234.37° 231.35° Asphalt 410 ft / 125 m 0 ft / 0 m
32 197 ft / 60 m 11,635 ft / 3,546 m 314.85° 311.83° Asphalt 817 ft / 249 m 0 ft / 0 m
6 148 ft / 45 m 7,789 ft / 2,374 m 54.35° 51.33° Asphalt 400 ft / 122 m 0 ft / 0 m

LGKP

Details ICAO LGKP (AOK)
Name KARPATHOS
Region Greece
Timezone Europe/Athens (UTC+2.0)
Stats Elevation 66 ft / 20 m (AMSL)
Location 35.421407° 27.146007°
Runways 1
Magnetic Variation 4.590° E

METAR

LGKP 181220Z 28010KT 9999 SCT030 19/11 Q1017

Decode

TAF

Not found

Destination Runways

ID Width Length Bearing (true) Bearing (mag) Surface Threshold Offset Overrun Length
12 98 ft / 30 m 7,866 ft / 2,398 m 124.49° 119.90° Asphalt 492 ft / 150 m 983 ft / 300 m
30 98 ft / 30 m 7,866 ft / 2,398 m 304.50° 299.91° Asphalt 492 ft / 150 m 458 ft / 140 m

Popular Alternatives